UGSB/BUS METAR and TAF weather

Enter ICAO airport designator
Station Type Date Time Source
UGSB METAR 2019/05/23 18:30 UTC NOAA

UGSB 231830Z 14007KT 9999 FEW031 BKN100 19/16 Q1015 NOSIG


Station Type Date Time Source
UGSB Decoded METAR 2019/05/23 18:30 UTC NOAA

Station name not available
May 23, 2019 - 02:30 PM EDT / 2019.05.23 1830 UTC
Wind: from the SE (140 degrees) at 8 MPH (7 KT):0
Visibility: greater than 7 mile(s):0
Sky conditions: mostly cloudy
Temperature: 66 F (19 C)
Dew Point: 60 F (16 C)
Relative Humidity: 82%
Pressure (altimeter): 29.97 in. Hg (1015 hPa)
ob: UGSB 231830Z 14007KT 9999 FEW031 BKN100 19/16 Q1015 NOSIG
cycle: 18

Station Type Date Time Source
UGSB TAF 2019/05/23 18:02 UTC NOAA

TAF UGSB 231700Z 2318/2418 VRB03KT 9999 FEW035 BKN070 TX26/2411Z TN18/2400Z
BECMG 2319/2322 13015KT
BECMG 2403/2405 CAVOK
BECMG 2405/2408 01010KT PROB40
TEMPO 2412/2416 SHRA SCT025CB

Example: see airport list